Copmanthorpe, United Kingdom
Current Conditions -  °F | °C
As of 5:50 AM on Thursday 23 Oct 2014 (Local Time) from EGXU Reporting Station
Broken Clouds Broken Clouds  
Wind Chill: 54°   Ceiling: 3200
Heat Index: 54°   Visibility: 6mi
Dew Point: 43°   Wind: 6mph
Humidity: 67%   Direction: 200°SSW
Pressure: 29.97"   Gusts: NA
Location:  53.91°N, 1.14°W
Report Text: EGXU 230450Z AUTO 20005KT 9999 // BKN032/// 12/06 Q1015
Loading
Personal Weather Stations






























Interactive Weather Map
Tropical Storm Tracking
New forecast layout! Learn more

10-Day Weather Forecast

Advertisements
Track Severe Weather on mobile